Time;durP1;ratioP1;P1;durP2;ratioP2;P2;SDS_P1;SDS_P2;PMS_P1;PMS_P2;Temp;Humidity;BMP_temperature;BMP_pressure;BME280_temperature;BME280_humidity;BME280_pressure;Samples;Min_cycle;Max_cycle;Signal;HPM_P1;HPM_P2
2023/12/08 00:03:20;;;;;;;5.50;4.43;;;5.80;85.40;;;;;;10445601;28;20225;-65
2023/12/08 00:08:25;;;;;;;5.27;4.50;;;5.80;83.80;;;;;;10443720;28;20263;-64
2023/12/08 00:13:28;;;;;;;5.47;4.20;;;5.80;83.40;;;;;;10437256;28;20283;-64
2023/12/08 00:18:32;;;;;;;5.80;4.30;;;5.80;82.90;;;;;;10440242;28;20203;-64
2023/12/08 00:23:37;;;;;;;5.10;4.30;;;5.90;82.30;;;;;;10442499;28;20223;-64
2023/12/08 00:28:41;;;;;;;5.07;3.97;;;5.90;83.00;;;;;;10440100;28;20305;-64
2023/12/08 00:33:47;;;;;;;4.03;3.60;;;6.00;82.50;;;;;;10438093;28;20767;-64
2023/12/08 00:38:54;;;;;;;4.27;3.87;;;6.00;82.40;;;;;;10437470;28;20199;-64
2023/12/08 00:43:57;;;;;;;5.30;4.10;;;6.00;83.90;;;;;;10442408;28;20229;-64
2023/12/08 00:49:04;;;;;;;6.30;4.73;;;6.10;82.80;;;;;;10450440;28;20252;-63
2023/12/08 00:54:12;;;;;;;6.13;4.27;;;6.10;83.60;;;;;;10444974;28;20215;-63
2023/12/08 00:59:15;;;;;;;5.60;4.80;;;6.10;83.70;;;;;;10441526;28;20206;-63
2023/12/08 01:04:19;;;;;;;6.23;4.70;;;6.10;81.10;;;;;;10445338;28;20253;-63
2023/12/08 01:09:24;;;;;;;5.47;4.27;;;6.10;81.70;;;;;;10447215;28;20568;-63
2023/12/08 01:14:27;;;;;;;5.03;4.43;;;6.10;81.40;;;;;;10446867;28;20222;-63
2023/12/08 01:19:31;;;;;;;5.70;4.83;;;6.20;84.00;;;;;;10447438;28;20259;-63
2023/12/08 01:24:36;;;;;;;5.50;4.90;;;6.20;82.70;;;;;;10446309;28;20230;-63
2023/12/08 01:29:39;;;;;;;5.90;5.23;;;6.10;83.90;;;;;;10439531;28;21588;-63
2023/12/08 01:34:43;;;;;;;6.07;5.40;;;6.20;81.80;;;;;;10445847;28;20274;-64
2023/12/08 01:39:48;;;;;;;7.00;5.23;;;6.10;81.30;;;;;;10447487;28;20275;-63
2023/12/08 01:44:52;;;;;;;6.80;5.60;;;6.20;81.50;;;;;;10444833;28;20592;-63
2023/12/08 01:49:55;;;;;;;5.83;4.77;;;6.20;81.20;;;;;;10441731;28;20257;-63
2023/12/08 01:55:01;;;;;;;6.40;5.20;;;6.20;81.40;;;;;;10447526;28;20245;-63
2023/12/08 02:00:06;;;;;;;7.20;6.23;;;6.20;81.20;;;;;;10445989;28;20203;-63
2023/12/08 02:05:10;;;;;;;6.90;5.80;;;6.20;81.00;;;;;;10450063;28;20247;-64
2023/12/08 02:10:15;;;;;;;6.93;5.60;;;6.20;80.20;;;;;;10447682;28;20202;-63
2023/12/08 02:15:19;;;;;;;9.03;6.20;;;6.20;80.20;;;;;;10449614;28;20197;-63
2023/12/08 02:20:23;;;;;;;7.27;5.50;;;6.30;79.20;;;;;;10443719;28;20206;-63
2023/12/08 02:25:28;;;;;;;6.83;5.17;;;6.30;79.60;;;;;;10447638;28;20225;-64
2023/12/08 02:30:32;;;;;;;6.47;5.70;;;6.30;80.90;;;;;;10444087;28;20777;-64
2023/12/08 02:35:39;;;;;;;6.80;5.70;;;6.30;80.00;;;;;;10447578;28;20198;-65
2023/12/08 02:40:44;;;;;;;7.37;6.33;;;6.30;79.60;;;;;;10448599;28;20249;-65
2023/12/08 02:45:47;;;;;;;6.73;6.00;;;6.30;79.40;;;;;;10448647;28;20218;-65
2023/12/08 02:50:52;;;;;;;6.73;5.70;;;6.30;80.10;;;;;;10449776;28;20972;-64
2023/12/08 02:55:59;;;;;;;6.77;5.57;;;6.30;80.00;;;;;;10449770;28;20257;-65
2023/12/08 03:01:02;;;;;;;6.37;5.13;;;6.30;79.20;;;;;;10447808;28;20244;-65
2023/12/08 03:06:06;;;;;;;6.63;5.60;;;6.30;79.50;;;;;;10446837;28;20230;-65
2023/12/08 03:11:11;;;;;;;8.00;5.73;;;6.30;80.20;;;;;;10449927;28;20221;-65
2023/12/08 03:16:16;;;;;;;7.00;6.03;;;6.30;79.60;;;;;;10440214;28;20218;-65
2023/12/08 03:21:22;;;;;;;8.83;6.30;;;6.30;81.10;;;;;;10443467;28;20222;-64
2023/12/08 03:26:27;;;;;;;8.47;6.77;;;6.30;82.20;;;;;;10446324;28;20314;-64
2023/12/08 03:31:32;;;;;;;7.70;6.33;;;6.30;82.70;;;;;;10445859;28;20222;-65
2023/12/08 03:36:36;;;;;;;9.30;7.30;;;6.20;83.20;;;;;;10443129;28;20195;-64
2023/12/08 03:41:41;;;;;;;10.27;7.10;;;6.20;84.00;;;;;;10435877;28;20343;-64
2023/12/08 03:46:44;;;;;;;9.90;7.53;;;6.20;84.80;;;;;;10448284;28;20360;-64
2023/12/08 03:51:48;;;;;;;8.73;7.13;;;6.10;85.50;;;;;;10441127;28;20264;-64
2023/12/08 03:56:53;;;;;;;9.63;7.53;;;6.10;86.20;;;;;;10446753;28;20202;-65
2023/12/08 04:01:57;;;;;;;9.73;7.80;;;6.10;86.40;;;;;;10421505;28;20542;-67
2023/12/08 04:07:01;;;;;;;9.67;7.77;;;6.10;87.10;;;;;;10447440;28;20227;-65
2023/12/08 04:12:09;;;;;;;10.07;7.57;;;6.10;88.20;;;;;;10440218;28;20769;-64
2023/12/08 04:17:12;;;;;;;10.70;7.77;;;6.10;89.60;;;;;;10436840;28;20213;-65
2023/12/08 04:22:19;;;;;;;9.77;7.87;;;6.10;90.00;;;;;;10452355;28;20225;-65
2023/12/08 04:27:24;;;;;;;9.47;7.93;;;6.10;89.10;;;;;;10451800;28;20577;-65
2023/12/08 04:32:27;;;;;;;10.83;8.93;;;6.00;88.90;;;;;;10453102;28;20327;-65
2023/12/08 04:37:33;;;;;;;11.17;9.10;;;6.00;89.60;;;;;;10452470;28;20193;-65
2023/12/08 04:42:38;;;;;;;11.17;9.17;;;6.00;89.90;;;;;;10449570;28;20228;-65
2023/12/08 04:47:42;;;;;;;10.20;9.07;;;6.00;90.10;;;;;;10448424;28;20279;-65
2023/12/08 04:52:46;;;;;;;9.43;8.07;;;5.90;90.10;;;;;;10446476;28;20245;-65
2023/12/08 04:57:51;;;;;;;11.30;8.83;;;5.90;90.20;;;;;;10453677;28;20738;-65
2023/12/08 05:02:57;;;;;;;11.50;9.30;;;5.90;90.20;;;;;;10447741;28;20237;-65
2023/12/08 05:08:01;;;;;;;12.80;9.13;;;6.00;90.30;;;;;;10448118;28;20253;-65
2023/12/08 05:13:06;;;;;;;11.87;9.33;;;6.00;90.40;;;;;;10449666;28;20763;-65
2023/12/08 05:18:10;;;;;;;12.30;9.47;;;5.90;90.30;;;;;;10448227;28;20652;-65
2023/12/08 05:23:13;;;;;;;11.97;9.40;;;6.00;90.60;;;;;;10449879;28;20267;-65
2023/12/08 05:28:18;;;;;;;13.90;9.27;;;5.90;91.00;;;;;;10446332;28;20689;-65
2023/12/08 05:33:23;;;;;;;13.13;9.40;;;5.90;91.20;;;;;;10448183;28;20226;-65
2023/12/08 05:38:27;;;;;;;12.77;10.70;;;5.90;91.00;;;;;;10446606;28;20256;-65
2023/12/08 05:43:32;;;;;;;11.93;10.37;;;5.90;91.30;;;;;;10445396;28;20229;-65
2023/12/08 05:48:35;;;;;;;12.67;10.47;;;5.90;91.50;;;;;;10443192;28;20221;-65
2023/12/08 05:53:39;;;;;;;13.17;9.97;;;5.90;91.60;;;;;;10451216;28;20263;-65
2023/12/08 05:58:45;;;;;;;12.20;10.20;;;5.90;92.40;;;;;;10440314;28;20238;-65
2023/12/08 06:03:48;;;;;;;14.30;11.20;;;5.90;93.00;;;;;;10435260;28;20234;-65
2023/12/08 06:08:52;;;;;;;12.63;10.60;;;5.90;92.70;;;;;;10447416;28;20221;-65
2023/12/08 06:13:57;;;;;;;12.67;11.37;;;5.90;93.50;;;;;;10448702;28;20221;-65
2023/12/08 06:19:01;;;;;;;18.93;14.83;;;5.90;93.20;;;;;;10442990;28;20244;-65
2023/12/08 06:24:05;;;;;;;12.17;9.87;;;5.90;92.60;;;;;;10439544;28;20643;-66
2023/12/08 06:29:10;;;;;;;12.20;10.63;;;5.90;92.60;;;;;;10447814;28;20253;-64
2023/12/08 06:34:14;;;;;;;11.47;9.97;;;5.90;94.30;;;;;;10446702;28;20592;-65
2023/12/08 06:39:20;;;;;;;13.30;11.07;;;6.00;94.00;;;;;;10444775;28;20254;-65
2023/12/08 06:44:25;;;;;;;14.37;10.80;;;6.00;93.60;;;;;;10438547;28;20244;-65
2023/12/08 06:49:30;;;;;;;14.83;11.70;;;5.90;93.90;;;;;;10445924;28;20606;-65
2023/12/08 06:54:34;;;;;;;13.77;10.70;;;5.90;93.70;;;;;;10440285;28;20652;-65
2023/12/08 06:59:39;;;;;;;16.00;11.90;;;6.00;94.70;;;;;;10440960;28;20691;-65
2023/12/08 07:04:43;;;;;;;14.17;12.13;;;6.00;94.40;;;;;;10438911;28;20234;-65
2023/12/08 07:09:46;;;;;;;15.13;12.17;;;6.00;94.10;;;;;;10445789;28;20223;-65
2023/12/08 07:14:52;;;;;;;13.57;11.73;;;6.00;93.70;;;;;;10438987;28;20287;-65
2023/12/08 07:19:56;;;;;;;13.33;11.20;;;6.00;93.40;;;;;;10437797;28;20202;-64
2023/12/08 07:25:00;;;;;;;13.13;10.33;;;6.10;93.50;;;;;;10445719;28;20248;-65
2023/12/08 07:30:07;;;;;;;13.37;10.77;;;6.10;94.10;;;;;;10442661;28;20225;-64
2023/12/08 07:35:10;;;;;;;14.73;12.03;;;6.00;93.70;;;;;;10444389;28;20221;-64
2023/12/08 07:40:14;;;;;;;15.07;12.60;;;6.10;94.90;;;;;;10441222;28;20199;-64
2023/12/08 07:45:22;;;;;;;19.30;17.40;;;6.00;94.70;;;;;;10435816;28;20441;-64
2023/12/08 07:50:26;;;;;;;18.03;12.83;;;6.30;95.10;;;;;;10459090;28;20221;-67
2023/12/08 07:55:29;;;;;;;17.47;12.90;;;6.20;94.90;;;;;;10501490;28;20205;-66
2023/12/08 08:00:35;;;;;;;16.97;12.83;;;6.20;95.00;;;;;;10501366;28;20198;-67
2023/12/08 08:05:39;;;;;;;16.60;12.70;;;6.10;94.90;;;;;;10501504;28;20270;-66
2023/12/08 08:10:42;;;;;;;16.77;14.00;;;6.10;95.20;;;;;;10501525;28;20267;-67
2023/12/08 08:15:47;;;;;;;16.67;12.67;;;6.10;95.00;;;;;;10500575;28;20205;-65
2023/12/08 08:20:51;;;;;;;14.57;12.13;;;6.10;95.10;;;;;;10501538;28;20249;-66
2023/12/08 08:25:56;;;;;;;16.93;13.13;;;6.10;95.60;;;;;;10502498;28;20202;-66
2023/12/08 08:31:02;;;;;;;17.77;14.10;;;6.10;95.30;;;;;;10500407;28;20251;-66
2023/12/08 08:36:07;;;;;;;17.00;14.53;;;6.20;95.40;;;;;;10494261;28;20206;-66
2023/12/08 08:41:10;;;;;;;14.60;12.80;;;6.20;95.60;;;;;;10456892;28;20220;-64
2023/12/08 08:46:18;;;;;;;16.77;12.87;;;6.20;95.50;;;;;;10454330;28;20242;-70
2023/12/08 08:51:21;;;;;;;17.23;13.03;;;6.20;95.60;;;;;;10449573;28;20596;-64
2023/12/08 08:56:25;;;;;;;16.97;14.37;;;6.30;96.00;;;;;;10451339;28;20255;-64
2023/12/08 09:01:30;;;;;;;16.90;13.30;;;6.30;95.70;;;;;;10454335;28;20223;-65
2023/12/08 09:06:34;;;;;;;16.67;13.93;;;6.30;95.60;;;;;;10447422;28;20264;-68
2023/12/08 09:11:38;;;;;;;14.97;12.57;;;6.30;95.40;;;;;;10449378;28;20238;-68
2023/12/08 09:16:43;;;;;;;17.13;13.10;;;6.30;95.40;;;;;;10453076;28;20202;-67
2023/12/08 09:21:47;;;;;;;17.40;13.40;;;6.40;95.80;;;;;;10443602;28;20599;-66
2023/12/08 09:26:57;;;;;;;18.43;14.03;;;6.40;95.50;;;;;;10447403;28;20573;-67
2023/12/08 09:32:02;;;;;;;18.47;14.73;;;6.40;95.80;;;;;;10446219;28;20226;-65
2023/12/08 09:37:05;;;;;;;19.77;14.47;;;6.50;96.10;;;;;;10451798;28;20267;-67
2023/12/08 09:42:36;;;;;;;17.03;13.50;;;6.50;96.10;;;;;;10447833;28;20234;-68
2023/12/08 09:47:41;;;;;;;16.80;13.57;;;6.50;95.90;;;;;;10447373;28;20992;-68
2023/12/08 09:52:46;;;;;;;18.20;14.07;;;6.50;96.20;;;;;;10435021;28;20757;-68
2023/12/08 09:57:53;;;;;;;17.97;13.57;;;6.50;96.80;;;;;;10444052;28;20211;-68
2023/12/08 10:02:58;;;;;;;18.27;13.47;;;6.50;96.70;;;;;;10440148;28;20248;-67
2023/12/08 10:08:02;;;;;;;17.23;13.23;;;6.50;96.50;;;;;;10444511;28;20631;-64
2023/12/08 10:13:06;;;;;;;17.67;13.30;;;6.50;96.50;;;;;;10446967;28;20223;-68
2023/12/08 10:18:23;;;;;;;18.23;13.63;;;6.50;96.80;;;;;;10438580;28;20253;-67
2023/12/08 10:23:27;;;;;;;19.60;14.43;;;6.50;96.50;;;;;;10442371;28;20266;-67
2023/12/08 10:28:34;;;;;;;18.77;15.43;;;6.60;96.80;;;;;;10438091;28;20223;-67
2023/12/08 10:33:40;;;;;;;21.30;14.87;;;6.70;97.30;;;;;;10440904;28;20230;-64
2023/12/08 10:38:44;;;;;;;15.13;12.87;;;6.70;97.30;;;;;;10443295;28;20241;-64
2023/12/08 10:43:48;;;;;;;16.20;12.90;;;6.70;97.60;;;;;;10443558;28;20288;-64
2023/12/08 10:48:54;;;;;;;14.37;12.60;;;6.80;97.20;;;;;;10436178;28;20814;-67
2023/12/08 10:54:00;;;;;;;15.83;12.70;;;6.80;97.50;;;;;;10441223;28;20687;-64
2023/12/08 10:59:08;;;;;;;15.20;12.23;;;6.80;97.80;;;;;;10431360;28;20658;-64
2023/12/08 11:04:15;;;;;;;14.80;12.03;;;6.80;97.20;;;;;;10450930;28;20238;-64
2023/12/08 11:09:22;;;;;;;17.53;12.17;;;6.80;97.50;;;;;;10442496;28;20222;-65
2023/12/08 11:14:36;;;;;;;13.47;11.17;;;6.80;97.70;;;;;;10444261;28;20760;-64
2023/12/08 11:19:41;;;;;;;14.67;12.00;;;6.80;97.60;;;;;;10446049;28;20194;-67
2023/12/08 11:24:46;;;;;;;15.20;11.83;;;6.80;97.60;;;;;;10452050;28;20226;-66
2023/12/08 11:29:54;;;;;;;15.40;12.03;;;6.80;98.00;;;;;;10449869;28;20241;-67
2023/12/08 11:35:03;;;;;;;19.43;12.27;;;6.80;98.40;;;;;;10441971;28;20222;-66
2023/12/08 11:40:11;;;;;;;16.20;12.60;;;6.90;98.80;;;;;;10450955;28;20221;-67
2023/12/08 11:45:26;;;;;;;16.80;12.43;;;6.90;98.60;;;;;;10448191;28;20218;-66
2023/12/08 11:50:32;;;;;;;16.47;12.53;;;7.00;98.80;;;;;;10445348;28;20278;-66
2023/12/08 11:55:36;;;;;;;17.13;13.20;;;7.00;99.30;;;;;;10448819;28;20196;-66
2023/12/08 12:00:41;;;;;;;20.67;14.30;;;7.00;99.30;;;;;;10444201;28;20595;-64
2023/12/08 12:05:47;;;;;;;18.63;13.33;;;7.10;99.30;;;;;;10451989;28;20214;-64
2023/12/08 12:10:59;;;;;;;20.13;14.47;;;7.10;99.60;;;;;;10447791;28;20222;-67
2023/12/08 12:16:11;;;;;;;21.87;13.93;;;7.10;99.90;;;;;;10443221;28;20207;-61
2023/12/08 12:21:20;;;;;;;21.30;14.63;;;7.10;99.40;;;;;;10445563;28;20219;-63
2023/12/08 12:26:28;;;;;;;19.67;15.27;;;7.20;99.90;;;;;;10442918;28;20199;-64
2023/12/08 12:31:49;;;;;;;24.50;15.47;;;7.20;99.90;;;;;;10458372;28;20284;-64
2023/12/08 12:36:55;;;;;;;21.53;14.47;;;7.20;99.90;;;;;;10448566;28;20191;-66
2023/12/08 12:41:59;;;;;;;21.50;14.13;;;7.30;99.90;;;;;;10454622;28;20257;-67
2023/12/08 12:47:02;;;;;;;19.43;14.43;;;7.40;99.90;;;;;;10452079;28;20670;-65
2023/12/08 12:52:25;;;;;;;22.60;14.60;;;7.40;99.90;;;;;;10432317;28;20303;-65
2023/12/08 12:57:49;;;;;;;25.27;14.37;;;7.50;99.90;;;;;;10443474;28;20203;-66
2023/12/08 13:02:53;;;;;;;23.13;14.60;;;7.50;99.90;;;;;;10452424;28;20265;-66
2023/12/08 13:07:58;;;;;;;21.20;13.70;;;7.50;99.90;;;;;;10456214;28;20211;-67
2023/12/08 13:13:02;;;;;;;21.57;13.90;;;7.60;99.90;;;;;;10455177;28;20296;-66
2023/12/08 13:18:06;;;;;;;20.53;14.10;;;7.60;99.90;;;;;;10449393;28;20260;-66
2023/12/08 13:23:12;;;;;;;24.97;14.10;;;7.60;99.90;;;;;;10429923;28;20215;-66
2023/12/08 13:28:15;;;;;;;19.97;13.03;;;7.70;99.90;;;;;;10454859;28;20867;-65
2023/12/08 13:33:21;;;;;;;19.00;13.90;;;7.70;99.90;;;;;;10455964;28;20280;-68
2023/12/08 13:38:27;;;;;;;20.37;14.13;;;7.70;99.90;;;;;;10431512;28;20202;-66
2023/12/08 13:43:31;;;;;;;19.03;14.03;;;7.60;99.90;;;;;;10448082;28;20600;-66
2023/12/08 13:48:35;;;;;;;24.03;16.20;;;7.60;99.90;;;;;;10421768;28;20207;-67
2023/12/08 13:53:40;;;;;;;25.30;15.83;;;7.60;99.90;;;;;;10462138;28;20222;-67
2023/12/08 13:58:46;;;;;;;21.63;16.20;;;7.60;99.90;;;;;;10448995;28;20879;-67
2023/12/08 14:03:50;;;;;;;34.87;20.10;;;7.70;99.90;;;;;;10453758;28;20284;-66
2023/12/08 14:08:55;;;;;;;28.67;16.77;;;7.70;99.90;;;;;;10444516;28;20276;-67
2023/12/08 14:13:59;;;;;;;25.93;16.43;;;7.70;99.90;;;;;;10450627;22;20297;-67
2023/12/08 14:19:02;;;;;;;32.67;19.73;;;7.70;99.90;;;;;;10457089;28;20204;-61
2023/12/08 14:24:07;;;;;;;28.43;17.23;;;7.70;99.90;;;;;;10456965;28;20223;-64
2023/12/08 14:29:11;;;;;;;27.10;16.73;;;7.70;99.90;;;;;;10456406;28;20203;-63
2023/12/08 14:34:16;;;;;;;25.63;16.73;;;7.80;99.90;;;;;;10447209;28;20235;-65
2023/12/08 14:39:22;;;;;;;25.03;15.27;;;7.80;99.90;;;;;;10427687;28;20254;-64
2023/12/08 14:44:27;;;;;;;23.03;14.17;;;7.80;99.90;;;;;;10448935;28;20253;-62
2023/12/08 14:49:30;;;;;;;28.20;15.33;;;7.80;99.90;;;;;;10429694;28;20219;-64
2023/12/08 14:54:37;;;;;;;30.57;15.63;;;7.80;99.90;;;;;;10444891;28;20223;-64
2023/12/08 14:59:41;;;;;;;29.03;16.27;;;7.80;99.90;;;;;;10443285;28;20738;-65
2023/12/08 15:04:44;;;;;;;26.63;16.07;;;7.90;99.90;;;;;;10433669;28;20301;-64
2023/12/08 15:09:49;;;;;;;32.37;16.33;;;7.90;99.90;;;;;;10452230;28;20219;-65
2023/12/08 15:14:53;;;;;;;30.17;17.57;;;7.90;99.90;;;;;;10437684;28;20258;-63
2023/12/08 15:20:01;;;;;;;28.07;16.90;;;7.90;99.90;;;;;;10444865;28;20196;-63
2023/12/08 15:25:07;;;;;;;30.57;17.53;;;7.90;99.90;;;;;;10444343;28;20219;-63
2023/12/08 15:30:11;;;;;;;37.80;17.90;;;7.90;99.90;;;;;;10436085;28;20529;-63
2023/12/08 15:35:17;;;;;;;31.50;18.67;;;7.90;99.90;;;;;;10436967;28;20238;-63
2023/12/08 15:40:22;;;;;;;31.97;19.23;;;7.90;99.90;;;;;;10428923;28;20199;-63
2023/12/08 15:45:25;;;;;;;34.10;18.30;;;8.00;99.90;;;;;;10440914;28;20207;-64
2023/12/08 15:50:29;;;;;;;38.37;19.90;;;8.00;99.90;;;;;;10442759;28;20250;-63
2023/12/08 15:55:34;;;;;;;35.90;19.23;;;8.00;99.90;;;;;;10456532;28;20210;-65
2023/12/08 16:00:39;;;;;;;44.70;21.10;;;8.00;99.90;;;;;;10443426;28;21949;-63
2023/12/08 16:05:44;;;;;;;47.23;20.70;;;8.00;99.90;;;;;;10434927;28;20273;-63
2023/12/08 16:10:49;;;;;;;48.90;24.37;;;8.00;99.90;;;;;;10445693;28;20274;-63
2023/12/08 16:15:53;;;;;;;43.53;20.90;;;8.00;99.90;;;;;;10421086;28;20223;-63
2023/12/08 16:20:56;;;;;;;37.97;19.80;;;8.00;99.90;;;;;;10439112;28;20212;-62
2023/12/08 16:26:02;;;;;;;49.23;24.40;;;8.00;99.90;;;;;;10447027;28;20257;-63
2023/12/08 16:31:05;;;;;;;36.67;21.13;;;8.10;99.90;;;;;;10444766;28;20262;-63
2023/12/08 16:36:10;;;;;;;43.03;20.80;;;8.10;99.90;;;;;;10441593;28;20203;-64
2023/12/08 16:41:15;;;;;;;44.10;20.70;;;8.10;99.90;;;;;;10431143;28;20223;-65
2023/12/08 16:46:18;;;;;;;48.00;23.50;;;8.10;99.90;;;;;;10454558;28;20645;-63
2023/12/08 16:51:22;;;;;;;49.97;21.87;;;8.10;99.90;;;;;;10440610;28;20232;-64
2023/12/08 16:56:27;;;;;;;42.03;21.77;;;8.20;99.90;;;;;;10447307;28;20211;-65
2023/12/08 17:01:30;;;;;;;47.63;21.53;;;8.20;99.90;;;;;;10446386;28;20219;-65
2023/12/08 17:06:36;;;;;;;43.37;22.17;;;8.20;99.90;;;;;;10440354;28;20246;-66
2023/12/08 17:11:41;;;;;;;42.93;23.37;;;8.20;99.90;;;;;;10453849;28;20601;-67
2023/12/08 17:16:45;;;;;;;47.80;24.70;;;8.30;99.90;;;;;;10442995;28;20230;-65
2023/12/08 17:21:49;;;;;;;54.13;22.40;;;8.30;99.90;;;;;;10470347;28;20222;-65
2023/12/08 17:26:55;;;;;;;45.47;22.03;;;8.30;99.90;;;;;;10477920;28;20257;-66
2023/12/08 17:31:58;;;;;;;48.43;22.47;;;8.30;99.90;;;;;;10455513;28;20770;-66
2023/12/08 17:37:02;;;;;;;41.27;21.37;;;8.30;99.90;;;;;;10443073;28;20263;-68
2023/12/08 17:42:07;;;;;;;44.67;22.93;;;8.30;99.90;;;;;;10444887;28;20226;-67
2023/12/08 17:47:11;;;;;;;42.67;23.20;;;8.30;99.90;;;;;;10458245;28;20193;-68
2023/12/08 17:52:20;;;;;;;38.30;22.20;;;8.30;99.90;;;;;;10453011;28;20223;-68
2023/12/08 17:57:25;;;;;;;49.80;24.40;;;8.30;99.90;;;;;;10446219;28;20230;-68
2023/12/08 18:02:29;;;;;;;45.67;22.33;;;8.40;99.90;;;;;;10433551;28;20254;-68
2023/12/08 18:07:32;;;;;;;40.10;22.17;;;8.40;99.90;;;;;;10444812;28;20204;-67
2023/12/08 18:12:37;;;;;;;38.07;20.50;;;8.40;99.90;;;;;;10455106;28;20222;-68
2023/12/08 18:17:41;;;;;;;31.73;18.47;;;8.40;99.90;;;;;;10449979;28;20274;-66
2023/12/08 18:22:45;;;;;;;41.13;21.83;;;8.40;99.90;;;;;;10457030;28;20280;-68
2023/12/08 18:27:50;;;;;;;38.03;21.87;;;8.50;99.90;;;;;;10451068;28;20273;-68
2023/12/08 18:33:14;;;;;;;42.67;21.33;;;8.50;99.90;;;;;;10442856;28;20263;-67
2023/12/08 18:38:17;;;;;;;33.80;20.23;;;8.50;99.90;;;;;;10456685;28;20203;-67
2023/12/08 18:43:22;;;;;;;37.77;21.33;;;8.40;99.90;;;;;;10427810;28;20642;-66
2023/12/08 18:48:26;;;;;;;38.13;19.27;;;8.50;99.90;;;;;;10448906;28;20202;-67
2023/12/08 18:53:30;;;;;;;39.13;19.67;;;8.50;99.90;;;;;;10440799;28;20286;-68
2023/12/08 18:58:36;;;;;;;31.00;17.93;;;8.50;99.90;;;;;;10410860;28;20873;-67
2023/12/08 19:03:40;;;;;;;28.23;16.47;;;8.50;99.90;;;;;;10438204;28;20219;-67
2023/12/08 19:08:44;;;;;;;32.47;16.17;;;8.50;99.90;;;;;;10453679;28;20231;-67
2023/12/08 19:13:49;;;;;;;31.23;16.23;;;8.50;99.90;;;;;;10453517;28;20235;-67
2023/12/08 19:18:52;;;;;;;33.87;17.67;;;8.50;99.90;;;;;;10453131;28;20207;-67
2023/12/08 19:23:56;;;;;;;32.20;16.93;;;8.50;99.90;;;;;;10461107;28;20220;-67
2023/12/08 19:29:01;;;;;;;32.20;16.13;;;8.50;99.90;;;;;;10449700;28;20257;-69
2023/12/08 19:34:05;;;;;;;30.27;16.77;;;8.50;99.90;;;;;;10448310;28;20288;-67
2023/12/08 19:39:09;;;;;;;28.50;16.43;;;8.50;99.90;;;;;;10455917;28;20195;-67
2023/12/08 19:44:14;;;;;;;24.80;14.90;;;8.50;99.90;;;;;;10456200;28;20211;-68
2023/12/08 19:49:18;;;;;;;24.47;14.53;;;8.50;99.90;;;;;;10430383;28;20200;-68
2023/12/08 19:54:22;;;;;;;28.20;17.67;;;8.50;99.90;;;;;;10459488;28;20240;-67
2023/12/08 19:59:27;;;;;;;27.67;15.47;;;8.60;99.90;;;;;;10450058;28;20251;-66
2023/12/08 20:04:30;;;;;;;22.80;14.77;;;8.60;99.90;;;;;;10447305;28;20216;-68
2023/12/08 20:09:34;;;;;;;25.63;14.43;;;8.60;99.90;;;;;;10448374;28;20262;-68
2023/12/08 20:14:39;;;;;;;22.33;13.20;;;8.60;99.90;;;;;;10437349;28;20222;-69
2023/12/08 20:19:42;;;;;;;22.53;13.07;;;8.60;99.90;;;;;;10430865;28;20234;-69
2023/12/08 20:24:46;;;;;;;21.17;12.90;;;8.60;99.90;;;;;;10430641;28;20274;-69
2023/12/08 20:29:51;;;;;;;22.83;11.90;;;8.60;99.90;;;;;;10432348;28;20205;-67
2023/12/08 20:34:54;;;;;;;22.67;12.20;;;8.60;99.90;;;;;;10435665;28;20591;-67
2023/12/08 20:39:58;;;;;;;23.47;12.40;;;8.60;99.90;;;;;;10438852;28;20207;-67
2023/12/08 20:45:03;;;;;;;25.13;13.10;;;8.60;99.90;;;;;;10435656;28;20280;-68
2023/12/08 20:50:07;;;;;;;24.60;12.57;;;8.60;99.90;;;;;;10452445;28;20195;-70
2023/12/08 20:55:11;;;;;;;20.30;12.27;;;8.60;99.90;;;;;;10444032;28;20230;-67
2023/12/08 21:00:17;;;;;;;19.37;11.33;;;8.60;99.90;;;;;;10440828;28;20199;-66
2023/12/08 21:05:21;;;;;;;19.10;11.37;;;8.70;99.90;;;;;;10457878;28;20214;-68
2023/12/08 21:10:25;;;;;;;21.50;11.40;;;8.70;99.90;;;;;;10449112;28;20200;-67
2023/12/08 21:15:30;;;;;;;24.17;12.10;;;8.70;99.90;;;;;;10436240;28;20225;-68
2023/12/08 21:20:34;;;;;;;22.30;13.30;;;8.70;99.90;;;;;;10466457;28;20202;-64
2023/12/08 21:25:38;;;;;;;25.87;14.43;;;8.70;99.90;;;;;;10445358;28;20198;-63
2023/12/08 21:30:43;;;;;;;20.83;13.13;;;8.70;99.90;;;;;;10445786;28;20226;-68
2023/12/08 21:35:47;;;;;;;25.90;16.77;;;8.70;99.90;;;;;;10448181;28;20222;-63
2023/12/08 21:40:51;;;;;;;26.23;18.13;;;8.70;99.90;;;;;;10457421;28;20219;-64
2023/12/08 21:45:57;;;;;;;23.17;15.13;;;8.70;99.90;;;;;;10449169;28;20239;-63
2023/12/08 21:51:01;;;;;;;13.90;10.23;;;8.70;99.90;;;;;;10457761;28;20261;-64
2023/12/08 21:56:08;;;;;;;19.40;9.30;;;8.70;99.90;;;;;;10446938;28;20276;-64
2023/12/08 22:01:13;;;;;;;17.20;8.43;;;8.80;99.90;;;;;;10395501;28;20226;-66
2023/12/08 22:06:17;;;;;;;14.63;7.00;;;8.80;99.90;;;;;;10453412;28;20192;-68
2023/12/08 22:11:21;;;;;;;14.73;7.10;;;8.80;99.90;;;;;;10450203;28;20274;-69
2023/12/08 22:16:27;;;;;;;11.47;5.93;;;8.80;99.90;;;;;;10452546;28;20694;-68
2023/12/08 22:21:31;;;;;;;13.77;5.37;;;8.80;99.90;;;;;;10453704;28;20223;-70
2023/12/08 22:26:37;;;;;;;12.30;5.37;;;8.80;99.90;;;;;;10418189;28;20574;-66
2023/12/08 22:31:43;;;;;;;11.50;5.20;;;8.80;99.90;;;;;;10437984;28;20710;-65
2023/12/08 22:36:47;;;;;;;12.10;4.87;;;8.80;99.90;;;;;;10452663;28;20238;-67
2023/12/08 22:41:50;;;;;;;11.43;4.97;;;8.80;99.90;;;;;;10457090;28;20690;-68
2023/12/08 22:46:55;;;;;;;8.97;4.47;;;8.80;99.90;;;;;;10448349;28;20193;-66
2023/12/08 22:51:59;;;;;;;9.80;4.20;;;8.90;99.90;;;;;;10447521;28;20219;-66
2023/12/08 22:57:02;;;;;;;11.40;4.67;;;8.90;99.90;;;;;;10448751;28;20218;-68
2023/12/08 23:02:07;;;;;;;13.77;4.20;;;8.90;99.90;;;;;;10450384;28;20219;-66
2023/12/08 23:07:11;;;;;;;10.70;4.37;;;8.90;99.90;;;;;;10433859;28;20623;-67
2023/12/08 23:12:14;;;;;;;11.37;4.47;;;8.90;99.90;;;;;;10443624;28;20272;-68
2023/12/08 23:17:21;;;;;;;7.97;4.50;;;8.90;99.90;;;;;;10445275;28;20223;-69
2023/12/08 23:22:24;;;;;;;11.53;4.23;;;8.90;99.90;;;;;;10420956;28;20216;-66
2023/12/08 23:27:28;;;;;;;9.67;4.00;;;8.90;99.90;;;;;;10419448;28;20598;-66
2023/12/08 23:32:33;;;;;;;11.67;4.00;;;8.90;99.90;;;;;;10431702;28;20224;-66
2023/12/08 23:37:37;;;;;;;10.23;3.63;;;8.90;99.90;;;;;;10449585;28;20219;-66
2023/12/08 23:42:41;;;;;;;8.27;3.67;;;8.90;99.90;;;;;;10440070;28;20220;-66
2023/12/08 23:47:46;;;;;;;7.90;3.80;;;8.90;99.90;;;;;;10442043;28;20208;-66
2023/12/08 23:52:49;;;;;;;14.33;4.70;;;8.90;99.90;;;;;;10453880;28;20693;-66
2023/12/08 23:57:53;;;;;;;8.33;4.17;;;8.80;99.90;;;;;;10434997;28;20199;-67
